Time;durP1;ratioP1;P1;durP2;ratioP2;P2;SDS_P1;SDS_P2;PMS_P1;PMS_P2;Temp;Humidity;BMP_temperature;BMP_pressure;BME280_temperature;BME280_humidity;BME280_pressure;Samples;Min_cycle;Max_cycle;Signal;HPM_P1;HPM_P2
2024/01/12 00:01:51;;;;;;;16.63;15.20;;;;;;;-3.24;60.83;94949.22;5074666;28;20262;-68
2024/01/12 00:04:19;;;;;;;15.98;14.57;;;;;;;-3.21;60.97;94954.88;5058215;28;20204;-68
2024/01/12 00:06:48;;;;;;;15.50;14.25;;;;;;;-3.15;60.95;94950.31;5075211;28;20266;-68
2024/01/12 00:09:15;;;;;;;14.75;13.55;;;;;;;-3.15;59.97;94951.13;5074788;28;20688;-68
2024/01/12 00:11:42;;;;;;;13.63;12.48;;;;;;;-3.18;59.40;94962.44;5058016;28;20247;-68
2024/01/12 00:14:09;;;;;;;13.98;12.82;;;;;;;-3.15;58.90;94961.09;5075100;28;20266;-68
2024/01/12 00:16:37;;;;;;;13.93;12.73;;;;;;;-3.11;59.49;94966.78;5074975;28;20239;-68
2024/01/12 00:19:04;;;;;;;13.80;12.65;;;;;;;-3.09;58.80;94962.72;5074955;28;20426;-68
2024/01/12 00:21:31;;;;;;;13.85;12.75;;;;;;;-3.05;58.85;94952.19;5057875;28;20235;-68
2024/01/12 00:24:00;;;;;;;13.57;12.45;;;;;;;-3.00;58.08;94941.41;5074997;28;20208;-68
2024/01/12 00:26:27;;;;;;;13.13;12.02;;;;;;;-2.92;57.33;94946.25;5074846;28;20201;-68
2024/01/12 00:28:54;;;;;;;12.85;11.80;;;;;;;-2.86;56.95;94957.88;5075562;28;20201;-68
2024/01/12 00:31:21;;;;;;;12.50;11.50;;;;;;;-2.82;56.41;94956.25;5075078;28;20305;-68
2024/01/12 00:33:48;;;;;;;13.15;12.05;;;;;;;-2.83;56.32;94963.53;5075461;28;20274;-68
2024/01/12 00:36:15;;;;;;;12.65;11.55;;;;;;;-2.85;56.44;94962.97;5057857;28;20326;-68
2024/01/12 00:38:42;;;;;;;12.15;11.15;;;;;;;-2.82;56.34;94962.44;5074912;28;20185;-68
2024/01/12 00:41:10;;;;;;;11.63;10.63;;;;;;;-2.78;55.96;94973.50;5074488;28;20722;-68
2024/01/12 00:43:37;;;;;;;11.55;10.55;;;;;;;-2.69;55.32;94966.47;5074671;28;20194;-68
2024/01/12 00:46:05;;;;;;;11.98;11.02;;;;;;;-2.64;55.24;94957.56;5057450;28;20243;-68
2024/01/12 00:48:32;;;;;;;11.73;10.73;;;;;;;-2.59;55.11;94957.56;5074257;28;20212;-68
2024/01/12 00:50:59;;;;;;;11.32;10.32;;;;;;;-2.55;54.22;94955.91;5074840;28;20193;-69
2024/01/12 00:53:26;;;;;;;11.68;10.68;;;;;;;-2.52;53.97;94950.78;5076847;28;20293;-69
2024/01/12 00:55:54;;;;;;;10.88;9.98;;;;;;;-2.46;52.69;94955.09;5078708;28;20194;-69
2024/01/12 00:58:23;;;;;;;12.25;11.18;;;;;;;-2.40;52.60;94955.06;5078235;28;20609;-69
2024/01/12 01:00:50;;;;;;;11.32;10.43;;;;;;;-2.43;52.52;94940.25;5061323;28;20274;-69
2024/01/12 01:03:17;;;;;;;11.98;10.98;;;;;;;-2.43;52.67;94951.06;5078360;28;20240;-68
2024/01/12 01:05:44;;;;;;;10.68;9.77;;;;;;;-2.41;51.99;94943.47;5060541;28;20196;-68
2024/01/12 01:08:11;;;;;;;9.57;8.88;;;;;;;-2.38;51.54;94948.31;5060764;28;20250;-67
2024/01/12 01:10:38;;;;;;;9.82;9.02;;;;;;;-2.33;51.32;94953.69;5060610;28;20707;-67
2024/01/12 01:13:05;;;;;;;9.82;9.00;;;;;;;-2.34;50.40;94948.59;5078221;28;20291;-68
2024/01/12 01:15:33;;;;;;;10.30;9.50;;;;;;;-2.38;50.35;94951.03;5078432;28;20236;-68
2024/01/12 01:18:00;;;;;;;10.48;9.57;;;;;;;-2.39;50.68;94944.00;5078227;28;20189;-67
2024/01/12 01:20:27;;;;;;;10.18;9.38;;;;;;;-2.39;50.10;94941.31;5078550;28;20205;-67
2024/01/12 01:22:54;;;;;;;9.68;8.88;;;;;;;-2.37;50.26;94941.03;5078046;28;20189;-67
2024/01/12 01:25:21;;;;;;;9.15;8.38;;;;;;;-2.36;49.73;94927.25;5078017;28;20221;-67
2024/01/12 01:27:48;;;;;;;8.95;8.15;;;;;;;-2.37;49.17;94927.53;5077811;28;20212;-68
2024/01/12 01:30:15;;;;;;;9.55;8.75;;;;;;;-2.38;49.07;94917.81;5078011;28;20235;-67
2024/01/12 01:32:43;;;;;;;9.80;8.98;;;;;;;-2.39;48.93;94917.00;5077829;28;20217;-67
2024/01/12 01:35:10;;;;;;;9.90;9.10;;;;;;;-2.43;49.21;94908.63;5076672;28;20269;-67
2024/01/12 01:37:37;;;;;;;9.48;8.70;;;;;;;-2.48;48.99;94903.22;5077572;28;20259;-67
2024/01/12 01:40:07;;;;;;;9.93;9.13;;;;;;;-2.51;49.47;94905.69;5060840;28;20204;-67
2024/01/12 01:42:34;;;;;;;10.30;9.48;;;;;;;-2.60;50.71;94908.16;5078108;28;20264;-67
2024/01/12 01:45:02;;;;;;;10.70;9.80;;;;;;;-2.69;50.94;94907.06;5060552;28;20197;-68
2024/01/12 01:47:29;;;;;;;12.10;11.20;;;;;;;-2.83;51.74;94908.72;5060501;28;20201;-68
2024/01/12 01:49:58;;;;;;;13.30;12.18;;;;;;;-2.91;52.87;94904.69;5077550;28;20251;-68
2024/01/12 01:52:27;;;;;;;13.27;12.10;;;;;;;-3.02;53.72;94898.50;5059579;28;20605;-68
2024/01/12 01:54:54;;;;;;;13.18;12.18;;;;;;;-3.07;54.05;94887.72;5060504;28;20232;-68
2024/01/12 01:57:21;;;;;;;13.88;12.68;;;;;;;-3.16;54.31;94883.94;5060739;28;20247;-68
2024/01/12 01:59:49;;;;;;;13.77;12.50;;;;;;;-3.27;53.80;94872.38;5077286;28;20201;-68
2024/01/12 02:02:16;;;;;;;11.90;10.90;;;;;;;-3.29;53.61;94874.50;5077722;28;20205;-68
2024/01/12 02:04:43;;;;;;;12.40;11.40;;;;;;;-3.28;53.64;94878.00;5077457;28;20259;-68
2024/01/12 02:07:12;;;;;;;11.00;10.10;;;;;;;-3.21;52.95;94868.56;5060343;28;20205;-68
2024/01/12 02:09:39;;;;;;;10.82;9.95;;;;;;;-3.10;52.03;94872.06;5060424;28;20262;-68
2024/01/12 02:12:07;;;;;;;10.57;9.68;;;;;;;-2.98;52.01;94869.06;5077254;28;20198;-68
2024/01/12 02:14:34;;;;;;;9.93;9.13;;;;;;;-2.88;51.15;94877.16;5076987;28;20256;-68
2024/01/12 02:17:01;;;;;;;8.93;8.23;;;;;;;-2.77;49.82;94867.16;5076584;28;20209;-68
2024/01/12 02:19:28;;;;;;;9.27;8.50;;;;;;;-2.68;49.52;94876.31;5077097;28;20247;-68
2024/01/12 02:21:56;;;;;;;9.15;8.35;;;;;;;-2.61;48.61;94874.13;5076691;28;20235;-68
2024/01/12 02:24:23;;;;;;;8.98;8.27;;;;;;;-2.54;48.90;94871.94;5076574;28;20644;-68
2024/01/12 02:26:51;;;;;;;9.45;8.65;;;;;;;-2.53;48.62;94872.75;5076800;28;20201;-68
2024/01/12 02:29:18;;;;;;;9.68;8.85;;;;;;;-2.50;48.42;94885.72;5076152;28;20197;-68
2024/01/12 02:31:45;;;;;;;8.77;8.00;;;;;;;-2.50;49.52;94881.13;5059669;28;20258;-68
2024/01/12 02:34:12;;;;;;;10.05;9.25;;;;;;;-2.54;49.88;94877.34;5075730;28;20248;-67
2024/01/12 02:36:39;;;;;;;10.90;9.98;;;;;;;-2.60;49.76;94883.03;5076706;28;20236;-68
2024/01/12 02:39:08;;;;;;;10.38;9.57;;;;;;;-2.65;49.83;94883.88;5059321;28;20201;-68
2024/01/12 02:41:35;;;;;;;11.63;10.70;;;;;;;-2.72;50.47;94886.03;5076990;28;20216;-67
2024/01/12 02:44:02;;;;;;;11.77;10.80;;;;;;;-2.81;51.38;94885.78;5059230;28;20223;-67
2024/01/12 02:46:28;;;;;;;12.48;11.38;;;;;;;-2.87;51.43;94884.16;5076371;28;20272;-67
2024/01/12 02:48:55;;;;;;;12.95;11.85;;;;;;;-2.91;52.34;94888.50;5058585;28;20632;-67
2024/01/12 02:51:22;;;;;;;13.93;12.73;;;;;;;-2.94;52.37;94889.06;5058717;28;20197;-67
2024/01/12 02:53:49;;;;;;;13.55;12.45;;;;;;;-3.00;53.31;94890.13;5076217;28;20586;-68
2024/01/12 02:56:18;;;;;;;14.45;13.07;;;;;;;-3.04;53.75;94899.84;5075142;28;20609;-68
2024/01/12 02:58:45;;;;;;;14.00;12.88;;;;;;;-3.07;54.20;94898.50;5075922;28;20563;-68
2024/01/12 03:01:12;;;;;;;14.45;13.25;;;;;;;-3.11;53.91;94902.84;5058630;28;20235;-68
2024/01/12 03:03:39;;;;;;;13.85;12.75;;;;;;;-3.20;54.67;94897.16;5058599;28;20223;-68
2024/01/12 03:06:07;;;;;;;13.80;12.70;;;;;;;-3.23;55.15;94904.97;5076384;28;20244;-67
2024/01/12 03:08:34;;;;;;;14.40;13.20;;;;;;;-3.28;54.35;94897.69;5058766;28;20205;-67
2024/01/12 03:11:01;;;;;;;14.30;13.10;;;;;;;-3.35;55.09;94891.78;5075707;28;20280;-67
2024/01/12 03:13:32;;;;;;;15.77;14.43;;;;;;;-3.36;55.38;94894.75;5075882;28;20283;-67
2024/01/12 03:15:59;;;;;;;14.68;13.38;;;;;;;-3.35;55.24;94890.97;5058004;28;20203;-67
2024/01/12 03:18:26;;;;;;;14.40;13.20;;;;;;;-3.34;55.34;94881.78;5075975;28;20225;-67
2024/01/12 03:20:54;;;;;;;14.35;13.15;;;;;;;-3.27;55.40;94882.31;5058377;28;20204;-69
2024/01/12 03:23:21;;;;;;;13.48;12.38;;;;;;;-3.25;55.78;94880.19;5058150;28;20294;-69
2024/01/12 03:25:48;;;;;;;14.63;13.35;;;;;;;-3.26;55.76;94878.56;5075230;28;20587;-70
2024/01/12 03:28:15;;;;;;;13.60;12.40;;;;;;;-3.27;55.31;94887.72;5075904;28;20268;-70
2024/01/12 03:30:44;;;;;;;14.05;12.85;;;;;;;-3.24;55.28;94879.88;5074681;28;20235;-70
2024/01/12 03:33:11;;;;;;;12.77;11.77;;;;;;;-3.21;54.90;94881.25;5075507;28;20181;-67
2024/01/12 03:35:38;;;;;;;13.88;12.55;;;;;;;-3.20;54.36;94888.25;5058924;28;20269;-67
2024/01/12 03:38:05;;;;;;;13.90;12.80;;;;;;;-3.21;54.18;94887.44;5058098;28;20232;-70
2024/01/12 03:40:33;;;;;;;12.65;11.65;;;;;;;-3.25;53.76;94872.88;5075235;28;20190;-69
2024/01/12 03:43:00;;;;;;;12.23;11.18;;;;;;;-3.19;54.07;94887.19;5058153;28;20197;-68
2024/01/12 03:45:27;;;;;;;10.57;9.77;;;;;;;-3.10;53.42;94869.38;5075176;28;20254;-68
2024/01/12 03:47:55;;;;;;;11.55;10.55;;;;;;;-3.03;52.93;94871.78;5075032;28;20235;-67
2024/01/12 03:50:22;;;;;;;11.77;10.77;;;;;;;-2.94;52.40;94867.47;5075405;28;20197;-67
2024/01/12 03:52:49;;;;;;;10.82;9.93;;;;;;;-2.87;51.86;94872.56;5057892;28;20232;-68
2024/01/12 03:55:16;;;;;;;10.32;9.52;;;;;;;-2.83;51.83;94874.47;5075301;28;20217;-68
2024/01/12 03:57:43;;;;;;;11.25;10.25;;;;;;;-2.79;51.30;94878.22;5057792;28;20235;-69
2024/01/12 04:00:11;;;;;;;11.60;10.60;;;;;;;-2.76;51.56;94874.16;5075305;28;20271;-69
2024/01/12 04:02:39;;;;;;;11.57;10.60;;;;;;;-2.73;51.72;94868.22;5075205;28;20235;-69
2024/01/12 04:05:09;;;;;;;12.25;11.20;;;;;;;-2.69;51.66;94867.41;5074926;28;20225;-71
2024/01/12 04:07:36;;;;;;;12.02;11.00;;;;;;;-2.63;51.46;94853.88;5075148;28;20193;-70
2024/01/12 04:10:03;;;;;;;12.05;11.05;;;;;;;-2.61;51.86;94868.72;5075462;28;20239;-70
2024/01/12 04:12:30;;;;;;;12.50;11.40;;;;;;;-2.58;51.66;94872.75;5057409;28;20232;-70
2024/01/12 04:14:57;;;;;;;12.13;11.13;;;;;;;-2.56;51.57;94868.69;5074162;28;20220;-70
2024/01/12 04:17:24;;;;;;;13.35;12.18;;;;;;;-2.58;51.41;94864.66;5074731;28;20254;-69
2024/01/12 04:19:51;;;;;;;13.82;12.63;;;;;;;-2.57;51.69;94866.28;5075057;28;20208;-70
2024/01/12 04:22:19;;;;;;;13.40;12.30;;;;;;;-2.56;51.90;94868.69;5074662;28;20235;-70
2024/01/12 04:24:46;;;;;;;13.70;12.50;;;;;;;-2.57;52.04;94869.00;5074832;28;20194;-70
2024/01/12 04:27:13;;;;;;;14.18;12.88;;;;;;;-2.55;52.53;94858.72;5076379;28;20185;-70
2024/01/12 04:29:41;;;;;;;13.60;12.40;;;;;;;-2.50;52.18;94867.59;5062015;28;20212;-70
2024/01/12 04:32:07;;;;;;;13.35;12.15;;;;;;;-2.48;51.95;94868.13;5078521;28;20241;-70
2024/01/12 04:34:36;;;;;;;13.48;12.30;;;;;;;-2.46;52.18;94865.16;5079340;28;20213;-70
2024/01/12 04:37:03;;;;;;;13.30;12.20;;;;;;;-2.48;52.37;94861.91;5061907;28;20209;-70
2024/01/12 04:39:31;;;;;;;13.10;12.00;;;;;;;-2.47;51.93;94875.16;5078813;28;20262;-70
2024/01/12 04:41:58;;;;;;;13.73;12.55;;;;;;;-2.51;52.29;94865.16;5078762;28;20193;-69
2024/01/12 04:44:25;;;;;;;13.48;12.38;;;;;;;-2.49;53.09;94858.41;5078693;28;20283;-70
2024/01/12 04:46:52;;;;;;;13.23;12.13;;;;;;;-2.57;52.88;94858.19;5078978;28;20217;-70
2024/01/12 04:49:19;;;;;;;13.85;12.68;;;;;;;-2.62;53.92;94861.69;5078853;28;20201;-69
2024/01/12 04:51:46;;;;;;;14.07;12.93;;;;;;;-2.62;54.16;94869.78;5078697;28;20270;-69
2024/01/12 04:54:13;;;;;;;14.50;13.20;;;;;;;-2.61;54.10;94867.94;5077704;28;20687;-69
2024/01/12 04:56:41;;;;;;;14.32;13.23;;;;;;;-2.65;53.93;94875.75;5060929;28;20251;-70
2024/01/12 04:59:08;;;;;;;14.15;12.88;;;;;;;-2.74;53.84;94877.41;5078520;28;20217;-70
2024/01/12 05:01:36;;;;;;;14.98;13.68;;;;;;;-2.79;54.21;94874.72;5061095;28;20209;-69
2024/01/12 05:04:03;;;;;;;15.57;14.27;;;;;;;-2.88;54.87;94882.56;5061123;28;20213;-70
2024/01/12 05:06:29;;;;;;;15.70;14.30;;;;;;;-2.92;55.65;94876.09;5061003;28;20251;-69
2024/01/12 05:08:56;;;;;;;16.90;15.48;;;;;;;-2.94;55.67;94887.16;5078319;28;20201;-69
2024/01/12 05:11:25;;;;;;;16.00;14.70;;;;;;;-2.94;56.04;94889.06;5060826;28;20621;-69
2024/01/12 05:13:54;;;;;;;15.55;14.25;;;;;;;-2.92;55.41;94890.38;5060649;28;20629;-69
2024/01/12 05:16:21;;;;;;;15.60;14.20;;;;;;;-2.94;55.75;94894.47;5060948;28;20212;-69
2024/01/12 05:18:48;;;;;;;16.23;14.80;;;;;;;-2.93;55.74;94904.97;5077263;28;20201;-69
2024/01/12 05:21:15;;;;;;;16.30;14.90;;;;;;;-2.93;55.80;94904.97;5061519;28;20254;-69
2024/01/12 05:23:43;;;;;;;16.23;14.73;;;;;;;-2.90;55.89;94909.03;5060846;28;20205;-69
2024/01/12 05:26:10;;;;;;;16.75;15.25;;;;;;;-2.88;55.50;94914.13;5060442;28;20193;-69
2024/01/12 05:28:37;;;;;;;16.35;14.90;;;;;;;-2.91;55.80;94918.97;5060119;28;20201;-69
2024/01/12 05:31:06;;;;;;;17.30;15.70;;;;;;;-2.92;56.31;94916.56;5060529;28;20294;-69
2024/01/12 05:33:33;;;;;;;17.25;15.65;;;;;;;-2.95;56.42;94926.00;5059975;28;20215;-69
2024/01/12 05:35:59;;;;;;;17.70;16.13;;;;;;;-3.00;56.83;94927.91;5060039;28;20256;-69
2024/01/12 05:38:27;;;;;;;18.33;16.63;;;;;;;-3.06;57.19;94929.78;5077746;28;20262;-69
2024/01/12 05:40:54;;;;;;;17.65;16.15;;;;;;;-3.12;57.53;94924.66;5059870;28;20204;-70
2024/01/12 05:43:21;;;;;;;18.55;16.88;;;;;;;-3.19;57.66;94931.16;5077844;28;20229;-69
2024/01/12 05:45:48;;;;;;;19.13;17.35;;;;;;;-3.24;57.81;94925.75;5077741;28;20189;-69
2024/01/12 05:48:16;;;;;;;18.42;16.83;;;;;;;-3.27;58.22;94928.19;5060947;28;20200;-71
2024/01/12 05:50:43;;;;;;;18.77;17.17;;;;;;;-3.32;58.22;94920.09;5077188;28;20194;-71
2024/01/12 05:53:10;;;;;;;19.27;17.63;;;;;;;-3.37;58.52;94917.41;5060019;28;20542;-71
2024/01/12 05:55:37;;;;;;;17.42;15.63;;;;;;;-3.35;58.33;94923.31;5077106;28;20213;-69
2024/01/12 05:58:05;;;;;;;16.42;14.82;;;;;;;-3.39;58.25;94923.06;5059800;28;20259;-70
2024/01/12 06:00:32;;;;;;;18.27;16.77;;;;;;;-3.46;58.97;94926.00;5077673;28;20205;-68
2024/01/12 06:02:59;;;;;;;18.80;17.20;;;;;;;-3.51;59.07;94931.41;5077270;28;20211;-69
2024/01/12 06:05:28;;;;;;;18.25;16.75;;;;;;;-3.50;58.84;94933.03;5077270;28;20185;-68
2024/01/12 06:07:55;;;;;;;19.35;17.65;;;;;;;-3.47;58.90;94927.09;5076510;28;20232;-69
2024/01/12 06:10:22;;;;;;;19.20;17.48;;;;;;;-3.46;58.63;94923.31;5076749;28;20600;-68
2024/01/12 06:12:49;;;;;;;19.30;17.70;;;;;;;-3.44;58.33;94923.06;5059774;28;20227;-68
2024/01/12 06:15:16;;;;;;;18.98;17.27;;;;;;;-3.43;57.96;94928.19;5059819;28;20213;-69
2024/01/12 06:17:43;;;;;;;19.17;17.48;;;;;;;-3.44;58.52;94926.56;5059395;28;20297;-70
2024/01/12 06:20:11;;;;;;;18.92;17.33;;;;;;;-3.47;58.91;94931.69;5077633;28;20237;-72
2024/01/12 06:22:40;;;;;;;19.73;18.02;;;;;;;-3.52;58.31;94935.19;5076591;28;20204;-73
2024/01/12 06:25:08;;;;;;;19.63;17.83;;;;;;;-3.53;58.15;94943.53;5059432;28;20208;-72
2024/01/12 06:27:37;;;;;;;18.98;17.30;;;;;;;-3.48;57.77;94938.16;5076352;28;20189;-73
2024/01/12 06:30:04;;;;;;;15.88;14.57;;;;;;;-3.40;56.92;94948.41;5059894;28;20259;-72
2024/01/12 06:32:31;;;;;;;15.25;13.95;;;;;;;-3.30;55.33;94944.91;5059079;28;20653;-70
2024/01/12 06:34:58;;;;;;;13.27;12.15;;;;;;;-3.20;53.97;94942.22;5060061;28;20209;-72
2024/01/12 06:37:25;;;;;;;12.38;11.38;;;;;;;-3.09;52.96;94937.63;5076994;28;20209;-73
2024/01/12 06:39:57;;;;;;;12.40;11.38;;;;;;;-3.04;52.44;94943.84;5060180;28;20201;-74
2024/01/12 06:42:24;;;;;;;12.45;11.43;;;;;;;-2.99;52.87;94951.91;5059378;28;20205;-68
2024/01/12 06:44:51;;;;;;;12.73;11.73;;;;;;;-2.90;52.58;94946.81;5075885;28;20288;-69
2024/01/12 06:47:18;;;;;;;12.88;11.77;;;;;;;-2.85;52.40;94954.09;5059256;28;20205;-68
2024/01/12 06:49:45;;;;;;;13.40;12.20;;;;;;;-2.80;52.52;94962.16;5058097;28;20243;-72
2024/01/12 06:52:13;;;;;;;13.43;12.23;;;;;;;-2.76;52.88;94960.53;5076319;28;20208;-72
2024/01/12 06:54:43;;;;;;;14.02;12.73;;;;;;;-2.73;52.09;94952.69;5075607;28;20259;-73
2024/01/12 06:57:11;;;;;;;13.50;12.30;;;;;;;-2.77;52.09;94967.03;5059162;28;20197;-72
2024/01/12 06:59:38;;;;;;;13.55;12.45;;;;;;;-2.76;51.83;94969.47;5058587;28;20251;-73
2024/01/12 07:02:05;;;;;;;13.98;12.68;;;;;;;-2.76;51.83;94958.66;5059081;28;20209;-72
2024/01/12 07:04:32;;;;;;;13.45;12.15;;;;;;;-2.69;52.18;94966.47;5058968;28;20202;-71
2024/01/12 07:06:59;;;;;;;18.45;16.75;;;;;;;-2.68;51.98;94968.09;5058566;28;20597;-72
2024/01/12 07:09:26;;;;;;;13.38;12.18;;;;;;;-2.63;52.26;94970.78;5075879;28;20617;-71
2024/01/12 07:11:53;;;;;;;15.02;13.73;;;;;;;-2.60;51.99;94966.75;5075090;28;20206;-73
2024/01/12 07:14:22;;;;;;;15.07;13.77;;;;;;;-2.55;52.66;94964.81;5058397;28;20259;-72
2024/01/12 07:16:49;;;;;;;16.58;15.05;;;;;;;-2.53;52.45;94964.56;5058216;28;20260;-72
2024/01/12 07:19:16;;;;;;;13.85;12.45;;;;;;;-2.51;52.32;94979.41;5058378;28;20205;-72
2024/01/12 07:21:43;;;;;;;14.68;13.18;;;;;;;-2.44;52.69;94974.53;5058700;28;20201;-72
2024/01/12 07:24:09;;;;;;;13.85;12.57;;;;;;;-2.36;53.17;94981.28;5058847;28;20197;-72
2024/01/12 07:26:36;;;;;;;14.70;13.40;;;;;;;-2.37;52.44;94982.34;5074660;28;20209;-72
2024/01/12 07:29:04;;;;;;;14.85;13.55;;;;;;;-2.37;52.49;94987.75;5058916;28;20250;-72
2024/01/12 07:31:35;;;;;;;15.00;13.52;;;;;;;-2.29;52.65;94989.91;5074610;28;20224;-73
2024/01/12 07:34:02;;;;;;;14.98;13.68;;;;;;;-2.20;52.75;94990.16;5075200;28;20254;-72
2024/01/12 07:36:29;;;;;;;15.93;14.43;;;;;;;-2.14;52.40;94991.78;5058262;28;20232;-74
2024/01/12 07:38:57;;;;;;;15.45;14.02;;;;;;;-2.07;52.33;94996.84;5058340;28;20189;-73
2024/01/12 07:41:24;;;;;;;14.15;12.85;;;;;;;-1.95;52.63;95005.50;5058469;28;20193;-74
2024/01/12 07:43:50;;;;;;;14.65;13.35;;;;;;;-1.90;52.40;95023.56;5059097;28;20193;-74
2024/01/12 07:46:18;;;;;;;15.57;14.07;;;;;;;-1.86;52.27;95019.22;5058062;28;20522;-75
2024/01/12 07:48:49;;;;;;;15.93;14.43;;;;;;;-1.83;52.28;95021.38;5057843;28;20201;-74
2024/01/12 07:51:16;;;;;;;16.42;14.85;;;;;;;-1.79;52.77;95033.25;5058563;28;20613;-75
2024/01/12 07:53:44;;;;;;;16.73;15.13;;;;;;;-1.77;53.09;95031.09;5058245;28;20199;-74
2024/01/12 07:56:11;;;;;;;17.45;15.75;;;;;;;-1.72;53.90;95037.28;5057811;28;20220;-74
2024/01/12 07:58:38;;;;;;;17.13;15.43;;;;;;;-1.54;53.40;95032.34;5074582;28;20205;-73
2024/01/12 08:01:06;;;;;;;16.55;14.85;;;;;;;-1.47;53.14;95038.28;5074897;28;20292;-73
2024/01/12 08:03:33;;;;;;;17.33;15.65;;;;;;;-1.45;52.61;95049.66;5074552;28;20201;-72
2024/01/12 08:06:02;;;;;;;16.70;15.00;;;;;;;-1.41;52.87;95048.00;5058437;28;20204;-72
2024/01/12 08:08:29;;;;;;;16.63;14.85;;;;;;;-1.33;52.27;95042.00;5074593;28;20563;-72
2024/01/12 08:10:57;;;;;;;15.77;14.38;;;;;;;-1.30;52.50;95049.56;5074656;28;20215;-72
2024/01/12 08:13:24;;;;;;;16.80;15.18;;;;;;;-1.18;52.67;95035.69;5058181;28;20193;-73
2024/01/12 08:15:51;;;;;;;17.48;15.80;;;;;;;-1.10;51.83;95039.69;5075241;28;20217;-73
2024/01/12 08:18:18;;;;;;;17.08;15.38;;;;;;;-1.08;52.28;95038.34;5057236;28;20215;-73
2024/01/12 08:20:45;;;;;;;17.15;15.45;;;;;;;-1.02;52.10;95036.41;5057830;28;20209;-73
2024/01/12 08:23:15;;;;;;;18.02;16.33;;;;;;;-1.00;52.02;95045.88;5058049;28;20200;-73
2024/01/12 08:25:42;;;;;;;18.52;16.77;;;;;;;-1.00;52.46;95034.22;5074639;28;20201;-72
2024/01/12 08:28:08;;;;;;;18.52;16.85;;;;;;;-1.01;52.35;95049.66;5073996;28;20613;-74
2024/01/12 08:30:35;;;;;;;18.25;16.63;;;;;;;-1.05;52.29;95050.53;5057513;28;20248;-72
2024/01/12 08:33:02;;;;;;;19.45;17.45;;;;;;;-0.93;53.18;95047.47;5057763;28;20247;-73
2024/01/12 08:35:29;;;;;;;20.55;18.63;;;;;;;-0.81;52.97;95062.25;5057821;28;20525;-68
2024/01/12 08:37:56;;;;;;;19.40;17.60;;;;;;;-0.65;53.68;95070.28;5057977;28;20259;-68
2024/01/12 08:40:25;;;;;;;19.52;17.73;;;;;;;-0.54;53.07;95077.25;5074974;28;20250;-68
2024/01/12 08:42:52;;;;;;;18.55;16.85;;;;;;;-0.62;53.29;95075.13;5057672;28;20516;-70
2024/01/12 08:45:19;;;;;;;23.10;21.00;;;;;;;-0.77;53.11;95084.16;5057240;28;20518;-71
2024/01/12 08:47:45;;;;;;;20.27;18.38;;;;;;;-0.93;53.55;95078.03;5073744;28;20552;-73
2024/01/12 08:50:13;;;;;;;19.27;17.48;;;;;;;-1.13;54.66;95086.28;5056858;28;20258;-73
2024/01/12 08:52:40;;;;;;;19.67;17.80;;;;;;;-1.14;54.82;95095.50;5074485;28;20284;-73
2024/01/12 08:55:09;;;;;;;19.35;17.65;;;;;;;-1.23;55.03;95092.56;5057993;28;20255;-71
2024/01/12 08:57:39;;;;;;;20.63;18.67;;;;;;;-1.25;55.21;95090.13;5057823;28;20237;-73
2024/01/12 09:00:09;;;;;;;19.73;18.02;;;;;;;-1.12;55.42;95093.31;5057651;28;20193;-71
2024/01/12 09:02:36;;;;;;;20.58;18.48;;;;;;;-0.85;55.10;95092.88;5074015;28;20205;-72
2024/01/12 09:05:04;;;;;;;19.70;17.90;;;;;;;-0.63;54.51;95097.91;5074359;28;20193;-68
2024/01/12 09:07:31;;;;;;;19.33;17.63;;;;;;;-0.75;54.12;95103.66;5057222;28;20197;-69
2024/01/12 09:09:58;;;;;;;20.67;18.65;;;;;;;-0.97;53.48;95106.78;5056767;28;20197;-72
2024/01/12 09:12:25;;;;;;;20.38;18.35;;;;;;;-1.07;54.39;95106.81;5057053;28;20255;-69
2024/01/12 09:14:53;;;;;;;20.67;18.73;;;;;;;-1.04;54.68;95111.69;5061184;28;20197;-73
2024/01/12 09:17:20;;;;;;;20.90;18.80;;;;;;;-1.03;55.06;95110.59;5077699;28;20213;-75
2024/01/12 09:19:47;;;;;;;21.00;19.08;;;;;;;-0.90;55.02;95109.97;5060800;28;20295;-74
2024/01/12 09:22:14;;;;;;;19.92;17.92;;;;;;;-0.70;54.76;95103.63;5061253;28;20648;-74
2024/01/12 09:24:41;;;;;;;20.65;18.75;;;;;;;-0.52;54.63;95102.16;5060810;28;20679;-74
2024/01/12 09:27:08;;;;;;;19.60;17.73;;;;;;;-0.30;53.94;95099.81;5061403;28;20197;-74
2024/01/12 09:29:35;;;;;;;21.98;19.88;;;;;;;-0.24;53.30;95081.59;5078214;28;20189;-74
2024/01/12 09:32:04;;;;;;;21.02;18.98;;;;;;;-0.23;53.96;95087.84;5060420;28;20237;-73
2024/01/12 09:34:30;;;;;;;20.30;18.30;;;;;;;-0.40;53.31;95093.66;5078513;28;20235;-72
2024/01/12 09:36:57;;;;;;;21.73;19.83;;;;;;;-0.52;53.31;95085.88;5078241;28;20317;-73
2024/01/12 09:39:24;;;;;;;21.05;18.95;;;;;;;-0.63;54.05;95076.22;5077625;28;20235;-72
2024/01/12 09:41:55;;;;;;;21.50;19.50;;;;;;;-0.70;54.06;95079.25;5059965;28;20232;-73
2024/01/12 09:44:22;;;;;;;20.30;18.35;;;;;;;-0.68;54.43;95087.91;5077908;28;20193;-72
2024/01/12 09:46:55;;;;;;;20.90;18.92;;;;;;;-0.56;54.35;95076.72;5077760;28;20266;-71
2024/01/12 09:49:24;;;;;;;20.77;18.88;;;;;;;-0.35;54.98;95085.50;5060086;28;20211;-72
2024/01/12 09:51:51;;;;;;;20.70;18.77;;;;;;;-0.07;54.03;95083.91;5060081;28;20201;-72
2024/01/12 09:54:19;;;;;;;20.80;18.90;;;;;;;0.15;53.32;95072.56;5060751;28;20318;-70
2024/01/12 09:56:45;;;;;;;20.13;18.23;;;;;;;0.22;52.81;95076.56;5060327;28;20213;-72
2024/01/12 09:59:16;;;;;;;19.60;17.60;;;;;;;0.37;51.96;95070.16;5060834;28;20239;-72
2024/01/12 10:01:43;;;;;;;19.80;17.90;;;;;;;0.76;51.91;95077.28;5060908;28;20205;-71
2024/01/12 10:04:10;;;;;;;20.67;18.70;;;;;;;1.02;52.17;95076.94;5077752;28;20201;-74
2024/01/12 10:06:39;;;;;;;19.92;17.95;;;;;;;1.21;50.86;95077.78;5077153;28;20224;-71
2024/01/12 10:09:06;;;;;;;19.90;17.90;;;;;;;1.14;50.02;95067.28;5077527;28;20229;-70
2024/01/12 10:11:33;;;;;;;20.10;18.25;;;;;;;1.42;49.65;95053.84;5077341;28;20266;-71
2024/01/12 10:14:00;;;;;;;20.15;18.15;;;;;;;1.65;49.50;95066.50;5077026;28;20201;-71
2024/01/12 10:16:29;;;;;;;21.40;19.20;;;;;;;1.74;48.86;95065.84;5077184;28;20283;-70
2024/01/12 10:18:57;;;;;;;20.63;18.63;;;;;;;1.82;48.80;95063.25;5077192;28;20205;-71
2024/01/12 10:21:24;;;;;;;20.55;18.35;;;;;;;1.87;49.00;95063.16;5077023;28;20186;-74
2024/01/12 10:24:02;;;;;;;20.00;18.20;;;;;;;2.05;48.55;95063.41;5060380;28;20193;-74
2024/01/12 10:26:29;;;;;;;20.38;18.27;;;;;;;2.19;48.13;95069.69;5076334;28;20196;-74
2024/01/12 10:28:56;;;;;;;20.98;19.23;;;;;;;2.38;47.64;95066.88;5060279;28;20271;-74
2024/01/12 10:31:23;;;;;;;20.52;18.63;;;;;;;2.50;47.00;95072.63;5076841;28;20233;-75
2024/01/12 10:33:50;;;;;;;21.00;19.10;;;;;;;2.64;47.12;95070.72;5059214;28;20201;-75
2024/01/12 10:36:21;;;;;;;20.73;18.70;;;;;;;2.67;46.76;95061.16;5076937;28;20236;-75
2024/01/12 10:38:50;;;;;;;20.15;18.23;;;;;;;2.56;47.05;95067.91;5043268;28;20232;-76
2024/01/12 10:41:22;;;;;;;19.85;18.02;;;;;;;2.62;47.25;95066.72;5058810;28;20629;-73
2024/01/12 10:43:52;;;;;;;20.50;18.50;;;;;;;2.67;47.54;95072.03;5059763;28;20204;-74
2024/01/12 10:46:35;;;;;;;20.02;18.05;;;;;;;2.70;47.36;95073.38;5058845;28;20217;-74
2024/01/12 10:49:11;;;;;;;20.50;18.40;;;;;;;2.66;47.74;95062.28;5059878;28;20201;-74
2024/01/12 10:51:40;;;;;;;21.55;19.55;;;;;;;2.68;48.96;95067.41;5058722;28;20643;-74
2024/01/12 10:54:10;;;;;;;19.85;18.00;;;;;;;2.09;49.25;95067.16;5059600;28;20200;-74
2024/01/12 10:56:39;;;;;;;21.17;19.17;;;;;;;1.80;50.21;95062.75;5059126;28;20232;-73
2024/01/12 10:59:07;;;;;;;21.42;19.20;;;;;;;1.56;50.37;95070.19;5075287;28;20211;-74
2024/01/12 11:01:35;;;;;;;20.55;18.63;;;;;;;1.15;51.84;95071.59;5059709;28;20211;-74
2024/01/12 11:04:05;;;;;;;22.13;19.92;;;;;;;1.07;52.05;95075.00;5076425;28;20181;-74
2024/01/12 11:06:33;;;;;;;21.05;19.05;;;;;;;1.11;52.56;95077.94;5059347;28;20193;-73
2024/01/12 11:09:01;;;;;;;20.17;18.27;;;;;;;0.96;52.71;95087.91;5058885;28;20193;-73
2024/01/12 11:11:35;;;;;;;23.33;21.23;;;;;;;0.80;53.27;95083.78;5076625;28;20207;-72
2024/01/12 11:14:04;;;;;;;22.27;20.27;;;;;;;0.59;52.80;95085.91;5058455;28;20197;-73
2024/01/12 11:16:31;;;;;;;22.10;20.00;;;;;;;0.45;53.66;95083.09;5076288;28;20241;-69
2024/01/12 11:18:58;;;;;;;23.83;21.63;;;;;;;0.51;54.39;95094.72;5058950;28;20485;-68
2024/01/12 11:21:26;;;;;;;22.25;20.13;;;;;;;0.62;53.96;95089.97;5058845;28;20205;-71